createdAt,value
2023-06-30T00:00:58.241Z,22.30
2023-06-30T00:03:25.339Z,22.29
2023-06-30T00:05:53.096Z,22.24
2023-06-30T00:08:20.172Z,22.25
2023-06-30T00:10:46.924Z,22.24
2023-06-30T00:13:13.468Z,22.19
2023-06-30T00:15:39.933Z,22.15
2023-06-30T00:18:06.509Z,22.07
2023-06-30T00:20:35.982Z,21.96
2023-06-30T00:23:02.449Z,21.91
2023-06-30T00:25:29.001Z,21.81
2023-06-30T00:27:55.496Z,21.88
2023-06-30T00:30:21.967Z,21.88
2023-06-30T00:32:48.610Z,21.86
2023-06-30T00:35:15.219Z,21.93
2023-06-30T00:37:41.647Z,21.92
2023-06-30T00:40:08.572Z,21.88
2023-06-30T00:42:35.108Z,21.87
2023-06-30T00:45:01.620Z,21.90
2023-06-30T00:47:28.166Z,21.96
2023-06-30T00:49:54.693Z,22.00
2023-06-30T00:52:21.233Z,22.02
2023-06-30T00:54:47.762Z,22.01
2023-06-30T00:57:14.276Z,22.00
2023-06-30T00:59:40.780Z,21.98
2023-06-30T01:02:15.169Z,21.96
2023-06-30T01:04:56.594Z,21.93
2023-06-30T01:07:45.159Z,21.89
2023-06-30T01:10:14.943Z,21.82
2023-06-30T01:12:43.180Z,21.83
2023-06-30T01:15:10.610Z,21.76
2023-06-30T01:17:46.508Z,21.77
2023-06-30T01:20:18.712Z,21.76
2023-06-30T01:23:01.342Z,21.78
2023-06-30T01:25:30.458Z,21.74
2023-06-30T01:27:58.796Z,21.77
2023-06-30T01:30:30.287Z,21.77
2023-06-30T01:32:59.708Z,21.76
2023-06-30T01:35:28.104Z,21.75
2023-06-30T01:37:57.406Z,21.75
2023-06-30T01:40:24.162Z,21.74
2023-06-30T01:42:55.517Z,21.71
2023-06-30T01:45:24.345Z,21.69
2023-06-30T01:47:51.896Z,21.68
2023-06-30T01:50:19.728Z,21.63
2023-06-30T01:52:46.262Z,21.66
2023-06-30T01:55:12.779Z,21.64
2023-06-30T01:57:39.222Z,21.63
2023-06-30T02:00:06.625Z,21.62
2023-06-30T02:02:33.568Z,21.63
2023-06-30T02:05:00.285Z,21.62
2023-06-30T02:07:26.831Z,21.58
2023-06-30T02:09:53.425Z,21.59
2023-06-30T02:12:19.882Z,21.58
2023-06-30T02:14:46.361Z,21.51
2023-06-30T02:17:12.854Z,21.50
2023-06-30T02:19:39.456Z,21.43
2023-06-30T02:22:06.054Z,21.40
2023-06-30T02:24:32.546Z,21.33
2023-06-30T02:26:59.171Z,21.22
2023-06-30T02:29:25.650Z,21.18
2023-06-30T02:31:52.156Z,21.17
2023-06-30T02:34:19.804Z,21.21
2023-06-30T02:36:46.320Z,21.22
2023-06-30T02:39:12.834Z,21.24
2023-06-30T02:41:39.288Z,21.22
2023-06-30T02:44:05.772Z,21.16
2023-06-30T02:46:32.232Z,21.13
2023-06-30T02:48:58.811Z,21.08
2023-06-30T02:51:25.346Z,21.05
2023-06-30T02:53:51.836Z,20.99
2023-06-30T02:56:18.678Z,21.00
2023-06-30T02:58:45.361Z,20.97
2023-06-30T03:01:12.161Z,20.95
2023-06-30T03:03:39.683Z,20.92
2023-06-30T03:06:06.232Z,20.90
2023-06-30T03:08:32.711Z,20.95
2023-06-30T03:10:59.186Z,20.99
2023-06-30T03:13:25.620Z,21.00
2023-06-30T03:15:52.094Z,21.01
2023-06-30T03:18:18.548Z,21.07
2023-06-30T03:20:45.006Z,21.10
2023-06-30T03:23:14.655Z,21.12
2023-06-30T03:25:41.757Z,21.14
2023-06-30T03:28:08.237Z,21.18
2023-06-30T03:30:34.766Z,21.19
2023-06-30T03:33:01.418Z,21.20
2023-06-30T03:35:27.880Z,21.19
2023-06-30T03:37:54.527Z,21.21
2023-06-30T03:40:21.248Z,21.21
2023-06-30T03:42:47.726Z,21.20
2023-06-30T03:45:14.319Z,21.20
2023-06-30T03:47:41.025Z,21.21
2023-06-30T03:50:10.553Z,21.24
2023-06-30T03:52:37.024Z,21.27
2023-06-30T03:55:03.937Z,21.28
2023-06-30T03:57:30.524Z,21.28
2023-06-30T03:59:57.045Z,21.31
2023-06-30T04:02:23.672Z,21.32
2023-06-30T04:04:50.233Z,21.33
2023-06-30T04:07:16.884Z,21.33
2023-06-30T04:09:43.445Z,21.31
2023-06-30T04:12:10.281Z,21.33
2023-06-30T04:14:36.730Z,21.28
2023-06-30T04:17:03.409Z,21.31
2023-06-30T04:19:29.901Z,21.29
2023-06-30T04:21:56.388Z,21.32
2023-06-30T04:24:22.927Z,21.33
2023-06-30T04:26:49.443Z,21.39
2023-06-30T04:29:16.759Z,21.42
2023-06-30T04:31:43.671Z,21.36
2023-06-30T04:34:10.280Z,21.41
2023-06-30T04:36:36.865Z,21.37
2023-06-30T04:39:03.730Z,21.35
2023-06-30T04:41:30.314Z,21.39
2023-06-30T04:43:56.828Z,21.41
2023-06-30T04:46:26.359Z,21.43
2023-06-30T04:48:53.244Z,21.46
2023-06-30T04:51:20.231Z,21.46
2023-06-30T04:53:46.822Z,21.46
2023-06-30T04:56:13.274Z,21.48
2023-06-30T04:58:39.778Z,21.57
2023-06-30T05:01:06.358Z,21.62
2023-06-30T05:03:32.969Z,21.50
2023-06-30T05:06:00.462Z,21.64
2023-06-30T05:08:27.515Z,21.71
2023-06-30T05:10:54.241Z,21.76
2023-06-30T05:13:20.781Z,21.86
2023-06-30T05:15:47.463Z,21.94
2023-06-30T05:18:15.272Z,22.02
2023-06-30T05:20:42.031Z,22.06
2023-06-30T05:23:08.587Z,22.18
2023-06-30T05:25:35.612Z,22.24
2023-06-30T05:28:02.183Z,22.31
2023-06-30T05:30:28.869Z,22.40
2023-06-30T05:32:55.371Z,22.46
2023-06-30T05:35:21.922Z,22.56
2023-06-30T05:37:48.488Z,22.67
2023-06-30T05:40:15.116Z,22.73
2023-06-30T05:42:41.759Z,22.74
2023-06-30T05:45:08.726Z,22.77
2023-06-30T05:47:35.323Z,22.82
2023-06-30T05:50:01.901Z,22.80
2023-06-30T05:52:28.477Z,22.86
2023-06-30T05:54:55.180Z,22.91
2023-06-30T05:57:21.675Z,22.98
2023-06-30T05:59:48.416Z,23.03
2023-06-30T06:02:15.278Z,23.11
2023-06-30T06:04:42.103Z,23.13
2023-06-30T06:07:10.615Z,23.16
2023-06-30T06:09:37.024Z,23.17
2023-06-30T06:12:03.698Z,23.20
2023-06-30T06:14:30.243Z,23.21
2023-06-30T06:16:56.773Z,23.21
2023-06-30T06:19:23.341Z,23.28
2023-06-30T06:21:49.848Z,23.30
2023-06-30T06:24:19.154Z,23.34
2023-06-30T06:26:45.699Z,23.35
2023-06-30T06:29:17.955Z,23.48
2023-06-30T06:31:45.901Z,23.61
2023-06-30T06:34:12.630Z,23.77
2023-06-30T06:36:39.101Z,23.94
2023-06-30T06:39:05.677Z,23.95
2023-06-30T06:41:32.964Z,24.13
2023-06-30T06:43:59.508Z,24.23
2023-06-30T06:46:26.073Z,24.21
2023-06-30T06:48:52.700Z,24.17
2023-06-30T06:51:19.235Z,24.15
2023-06-30T06:53:45.725Z,24.14
2023-06-30T06:56:12.319Z,24.19
2023-06-30T06:58:41.994Z,24.26
2023-06-30T07:01:08.533Z,24.39
2023-06-30T07:03:35.432Z,24.54
2023-06-30T07:06:02.152Z,24.64
2023-06-30T07:08:29.501Z,24.75
2023-06-30T07:10:57.220Z,24.88
2023-06-30T07:13:23.733Z,24.94
2023-06-30T07:15:51.426Z,24.98
2023-06-30T07:18:19.926Z,24.94
2023-06-30T07:20:51.472Z,24.92
2023-06-30T07:23:20.744Z,24.84
2023-06-30T07:25:48.918Z,24.73
2023-06-30T07:28:15.504Z,24.58
2023-06-30T07:30:46.220Z,24.57
2023-06-30T07:33:13.616Z,24.52
2023-06-30T07:35:40.377Z,24.56
2023-06-30T07:38:06.965Z,24.71
2023-06-30T07:40:46.445Z,24.91
2023-06-30T07:43:20.065Z,25.14
2023-06-30T07:45:46.856Z,25.26
2023-06-30T07:48:13.890Z,25.44
2023-06-30T07:50:44.991Z,25.61
2023-06-30T07:53:17.663Z,25.71
2023-06-30T07:55:44.399Z,25.72
2023-06-30T07:58:11.183Z,25.72
2023-06-30T08:00:37.687Z,25.73
2023-06-30T08:03:04.232Z,25.68
2023-06-30T08:05:30.995Z,25.74
2023-06-30T08:07:57.534Z,25.95
2023-06-30T08:10:24.107Z,26.01
2023-06-30T08:12:50.560Z,26.06
2023-06-30T08:15:17.085Z,25.99
2023-06-30T08:17:53.083Z,25.78
2023-06-30T08:20:25.869Z,25.49
2023-06-30T08:22:52.861Z,25.32
2023-06-30T08:25:26.209Z,25.23
2023-06-30T08:27:53.079Z,25.26
2023-06-30T08:30:22.766Z,25.25
2023-06-30T08:32:50.650Z,25.30
2023-06-30T08:35:17.651Z,25.33
2023-06-30T08:37:44.163Z,25.30
2023-06-30T08:40:11.283Z,25.38
2023-06-30T08:42:42.105Z,25.35
2023-06-30T08:45:11.043Z,25.39
2023-06-30T08:47:38.535Z,25.37
2023-06-30T08:50:07.511Z,25.25
2023-06-30T08:52:35.590Z,25.23
2023-06-30T08:55:04.015Z,25.22
2023-06-30T08:57:32.524Z,25.18
2023-06-30T08:59:59.141Z,25.20
2023-06-30T09:02:27.433Z,25.12
2023-06-30T09:04:54.835Z,25.08
2023-06-30T09:07:27.670Z,25.00
2023-06-30T09:10:01.012Z,24.88
2023-06-30T09:12:27.744Z,24.79
2023-06-30T09:14:57.401Z,24.74
2023-06-30T09:17:25.832Z,24.58
2023-06-30T09:19:53.073Z,24.48
2023-06-30T09:22:55.260Z,24.39
2023-06-30T09:25:26.981Z,24.32
2023-06-30T09:27:54.867Z,24.36
2023-06-30T09:30:34.656Z,24.41
2023-06-30T09:33:02.352Z,24.42
2023-06-30T09:35:43.383Z,24.41
2023-06-30T09:38:17.125Z,24.38
2023-06-30T09:40:47.986Z,24.45
2023-06-30T09:43:19.526Z,24.44
2023-06-30T09:45:49.427Z,24.51
2023-06-30T09:48:16.470Z,24.57
2023-06-30T09:50:43.499Z,24.64
2023-06-30T09:53:10.415Z,24.73
2023-06-30T09:55:57.267Z,24.85
2023-06-30T09:58:23.729Z,24.88
2023-06-30T10:00:52.543Z,24.96
2023-06-30T10:03:19.948Z,24.99
2023-06-30T10:05:49.838Z,24.99
2023-06-30T10:08:17.804Z,24.90
2023-06-30T10:10:44.776Z,24.89
2023-06-30T10:13:16.402Z,24.79
2023-06-30T10:15:43.813Z,24.65
2023-06-30T10:18:12.298Z,24.51
2023-06-30T10:20:47.784Z,24.32
2023-06-30T10:23:15.457Z,24.18
2023-06-30T10:25:42.761Z,24.08
2023-06-30T10:28:09.669Z,24.00
2023-06-30T10:30:36.631Z,24.06
2023-06-30T10:33:03.328Z,24.13
2023-06-30T10:35:31.637Z,24.27
2023-06-30T10:37:58.821Z,24.37
2023-06-30T10:40:30.486Z,24.61
2023-06-30T10:42:57.886Z,24.74
2023-06-30T10:45:34.078Z,24.95
2023-06-30T10:48:10.790Z,25.00
2023-06-30T10:50:45.393Z,24.91
2023-06-30T10:53:19.402Z,24.97
2023-06-30T10:55:47.397Z,25.02
2023-06-30T10:58:24.231Z,25.09
2023-06-30T11:01:05.125Z,25.31
2023-06-30T11:03:56.684Z,25.34
2023-06-30T11:06:24.329Z,25.53
2023-06-30T11:09:01.627Z,25.81
2023-06-30T11:11:30.946Z,25.80
2023-06-30T11:14:07.786Z,25.74
2023-06-30T11:17:06.551Z,25.44
2023-06-30T11:19:37.563Z,25.05
2023-06-30T11:22:23.739Z,24.78
2023-06-30T11:24:50.326Z,24.48
2023-06-30T11:27:17.060Z,24.03
2023-06-30T11:29:43.810Z,23.66
2023-06-30T11:32:10.451Z,23.56
2023-06-30T11:34:37.184Z,23.47
2023-06-30T11:37:07.032Z,23.37
2023-06-30T11:39:35.627Z,23.33
2023-06-30T11:42:02.227Z,23.34
2023-06-30T11:44:28.656Z,23.43
2023-06-30T11:46:58.524Z,23.60
2023-06-30T11:49:27.606Z,23.94
2023-06-30T11:51:54.190Z,24.28
2023-06-30T11:54:30.170Z,24.50
2023-06-30T11:56:58.817Z,24.55
2023-06-30T11:59:28.124Z,24.44
2023-06-30T12:01:55.058Z,24.20
2023-06-30T12:04:21.680Z,24.25
2023-06-30T12:06:48.645Z,24.17
2023-06-30T12:09:15.580Z,24.17
2023-06-30T12:11:51.126Z,24.26
2023-06-30T12:14:22.764Z,24.27
2023-06-30T12:17:04.299Z,24.22
2023-06-30T12:19:30.741Z,24.04
2023-06-30T12:22:04.456Z,23.99
2023-06-30T12:24:33.174Z,23.95
2023-06-30T12:27:03.187Z,23.89
2023-06-30T12:29:33.012Z,23.66
2023-06-30T12:31:59.816Z,23.45
2023-06-30T12:34:37.298Z,23.36
2023-06-30T12:37:04.519Z,23.22
2023-06-30T12:39:30.981Z,23.18
2023-06-30T12:41:57.507Z,23.04
2023-06-30T12:44:24.058Z,22.93
2023-06-30T12:47:07.191Z,22.82
2023-06-30T12:49:37.549Z,22.57
2023-06-30T12:52:04.799Z,22.47
2023-06-30T12:54:31.624Z,22.39
2023-06-30T12:56:58.185Z,22.38
2023-06-30T12:59:24.830Z,22.36
2023-06-30T13:01:51.565Z,22.36
2023-06-30T13:04:18.114Z,22.33
2023-06-30T13:06:44.636Z,22.24
2023-06-30T13:09:11.194Z,22.15
2023-06-30T13:11:37.718Z,21.97
2023-06-30T13:14:05.388Z,21.81
2023-06-30T13:16:32.611Z,21.79
2023-06-30T13:18:59.859Z,21.72
2023-06-30T13:21:26.361Z,21.68
2023-06-30T13:23:52.824Z,21.68
2023-06-30T13:26:19.340Z,21.67
2023-06-30T13:28:45.853Z,21.65
2023-06-30T13:31:12.581Z,21.64
2023-06-30T13:33:39.232Z,21.55
2023-06-30T13:36:09.082Z,21.47
2023-06-30T13:38:35.803Z,21.47
2023-06-30T13:41:02.493Z,21.43
2023-06-30T13:43:29.960Z,21.41
2023-06-30T13:45:56.778Z,21.28
2023-06-30T13:48:23.195Z,21.24
2023-06-30T13:50:50.000Z,21.16
2023-06-30T13:53:16.560Z,21.14
2023-06-30T13:55:43.018Z,21.10
2023-06-30T13:58:12.355Z,21.05
2023-06-30T14:00:38.903Z,21.07
2023-06-30T14:03:05.595Z,21.03
2023-06-30T14:05:32.251Z,20.96
2023-06-30T14:07:59.944Z,20.90
2023-06-30T14:10:26.396Z,20.90
2023-06-30T14:12:52.889Z,20.94
2023-06-30T14:15:20.814Z,20.98
2023-06-30T14:17:47.742Z,21.03
2023-06-30T14:20:14.316Z,21.05
2023-06-30T14:22:40.748Z,21.06
2023-06-30T14:25:07.565Z,21.08
2023-06-30T14:27:34.312Z,21.14
2023-06-30T14:30:00.858Z,21.24
2023-06-30T14:32:27.987Z,21.33
2023-06-30T14:34:54.493Z,21.42
2023-06-30T14:37:21.725Z,21.60
2023-06-30T14:39:48.270Z,21.73
2023-06-30T14:42:27.139Z,21.91
2023-06-30T14:44:57.735Z,21.97
2023-06-30T14:47:24.273Z,22.01
2023-06-30T14:49:50.749Z,22.07
2023-06-30T14:52:17.305Z,22.11
2023-06-30T14:54:43.839Z,22.08
2023-06-30T14:57:10.334Z,22.06
2023-06-30T14:59:36.837Z,22.01
2023-06-30T15:02:03.590Z,21.95
2023-06-30T15:04:30.100Z,21.84
2023-06-30T15:06:57.732Z,21.80
2023-06-30T15:09:24.232Z,21.78
2023-06-30T15:11:51.212Z,21.78
2023-06-30T15:14:17.641Z,21.75
2023-06-30T15:16:44.175Z,21.72
2023-06-30T15:19:10.772Z,21.69
2023-06-30T15:21:37.302Z,21.64
2023-06-30T15:24:03.968Z,21.72
2023-06-30T15:26:30.474Z,21.76
2023-06-30T15:28:56.980Z,21.79
2023-06-30T15:31:23.466Z,21.93
2023-06-30T15:33:50.190Z,22.04
2023-06-30T15:36:16.904Z,22.12
2023-06-30T15:38:43.353Z,22.17
2023-06-30T15:41:21.608Z,22.14
2023-06-30T15:43:49.099Z,22.03
2023-06-30T15:46:17.137Z,21.95
2023-06-30T15:48:43.616Z,21.95
2023-06-30T15:51:10.129Z,21.98
2023-06-30T15:53:36.695Z,22.00
2023-06-30T15:56:03.275Z,22.00
2023-06-30T15:58:29.710Z,22.00
2023-06-30T16:00:56.179Z,22.03
2023-06-30T16:03:22.777Z,22.11
2023-06-30T16:05:49.900Z,22.12
2023-06-30T16:08:16.667Z,22.08
2023-06-30T16:10:43.133Z,21.98
2023-06-30T16:13:12.967Z,21.88
2023-06-30T16:15:39.967Z,21.79
2023-06-30T16:18:06.454Z,21.67
2023-06-30T16:20:32.966Z,21.62
2023-06-30T16:22:59.786Z,21.47
2023-06-30T16:25:26.240Z,21.45
2023-06-30T16:27:52.736Z,21.41
2023-06-30T16:30:29.692Z,21.37
2023-06-30T16:32:57.639Z,21.33
2023-06-30T16:35:25.609Z,21.40
2023-06-30T16:37:56.340Z,21.38
2023-06-30T16:40:22.854Z,21.42
2023-06-30T16:42:49.461Z,21.29
2023-06-30T16:45:16.289Z,21.37
2023-06-30T16:47:47.086Z,21.39
2023-06-30T16:50:14.795Z,21.40
2023-06-30T16:52:43.450Z,21.38
2023-06-30T16:55:10.493Z,21.39
2023-06-30T16:57:40.760Z,21.41
2023-06-30T17:00:09.988Z,21.38
2023-06-30T17:02:37.985Z,21.33
2023-06-30T17:05:05.388Z,21.27
2023-06-30T17:07:32.089Z,21.29
2023-06-30T17:09:58.760Z,21.29
2023-06-30T17:12:25.357Z,21.31
2023-06-30T17:14:51.870Z,21.32
2023-06-30T17:17:18.586Z,21.41
2023-06-30T17:19:45.158Z,21.43
2023-06-30T17:22:11.823Z,21.43
2023-06-30T17:24:38.288Z,21.41
2023-06-30T17:27:05.045Z,21.46
2023-06-30T17:29:31.649Z,21.50
2023-06-30T17:31:58.089Z,21.52
2023-06-30T17:34:24.553Z,21.63
2023-06-30T17:37:00.609Z,21.56
2023-06-30T17:39:27.090Z,21.62
2023-06-30T17:41:53.614Z,21.60
2023-06-30T17:44:20.685Z,21.55
2023-06-30T17:46:47.213Z,21.52
2023-06-30T17:49:25.352Z,21.43
2023-06-30T17:51:52.309Z,21.38
2023-06-30T17:54:21.823Z,21.36
2023-06-30T17:56:48.760Z,21.31
2023-06-30T17:59:15.649Z,21.27
2023-06-30T18:01:43.197Z,21.26
2023-06-30T18:04:10.066Z,21.22
2023-06-30T18:07:02.934Z,21.16
2023-06-30T18:09:30.502Z,21.07
2023-06-30T18:11:59.028Z,20.98
2023-06-30T18:14:25.956Z,20.97
2023-06-30T18:16:52.631Z,20.86
2023-06-30T18:19:20.031Z,20.83
2023-06-30T18:21:51.056Z,20.79
2023-06-30T18:24:18.266Z,20.71
2023-06-30T18:26:49.039Z,20.71
2023-06-30T18:29:16.833Z,20.69
2023-06-30T18:31:43.545Z,20.64
2023-06-30T18:34:10.147Z,20.62
2023-06-30T18:36:36.589Z,20.61
2023-06-30T18:39:04.330Z,20.59
2023-06-30T18:41:31.124Z,20.58
2023-06-30T18:43:57.622Z,20.54
2023-06-30T18:46:26.663Z,20.52
2023-06-30T18:48:53.638Z,20.48
2023-06-30T18:51:20.623Z,20.46
2023-06-30T18:53:47.075Z,20.41
2023-06-30T18:56:15.218Z,20.40
2023-06-30T18:58:41.745Z,20.37
2023-06-30T19:01:10.881Z,20.38
2023-06-30T19:03:37.480Z,20.34
2023-06-30T19:06:04.074Z,20.32
2023-06-30T19:08:30.529Z,20.31
2023-06-30T19:10:57.062Z,20.28
2023-06-30T19:13:23.707Z,20.23
2023-06-30T19:15:50.448Z,20.23
2023-06-30T19:18:20.374Z,20.18
2023-06-30T19:20:48.257Z,20.20
2023-06-30T19:23:14.992Z,20.18
2023-06-30T19:25:44.601Z,20.16
2023-06-30T19:28:12.114Z,20.14
2023-06-30T19:30:38.587Z,20.06
2023-06-30T19:33:05.952Z,20.06
2023-06-30T19:35:32.884Z,20.03
2023-06-30T19:37:59.495Z,19.98
2023-06-30T19:40:26.019Z,19.94
2023-06-30T19:42:52.525Z,19.89
2023-06-30T19:45:19.131Z,19.85
2023-06-30T19:47:48.549Z,19.84
2023-06-30T19:50:15.344Z,19.79
2023-06-30T19:52:43.141Z,19.78
2023-06-30T19:55:09.956Z,19.75
2023-06-30T19:57:36.406Z,19.70
2023-06-30T20:00:03.108Z,19.69
2023-06-30T20:02:29.634Z,19.70
2023-06-30T20:04:57.106Z,19.67
2023-06-30T20:07:23.612Z,19.65
2023-06-30T20:09:50.788Z,19.65
2023-06-30T20:12:17.445Z,19.62
2023-06-30T20:14:43.881Z,19.59
2023-06-30T20:17:10.384Z,19.57
2023-06-30T20:19:39.517Z,19.51
2023-06-30T20:22:06.806Z,19.43
2023-06-30T20:24:33.423Z,19.40
2023-06-30T20:27:01.157Z,19.39
2023-06-30T20:29:28.104Z,19.38
2023-06-30T20:31:54.904Z,19.33
2023-06-30T20:34:21.386Z,19.30
2023-06-30T20:36:47.856Z,19.27
2023-06-30T20:39:14.320Z,19.23
2023-06-30T20:41:40.894Z,19.18
2023-06-30T20:44:08.831Z,19.17
2023-06-30T20:46:35.636Z,19.14
2023-06-30T20:49:02.178Z,19.14
2023-06-30T20:51:28.699Z,19.13
2023-06-30T20:53:55.163Z,19.11
2023-06-30T20:56:21.681Z,19.08
2023-06-30T20:58:48.120Z,19.05
2023-06-30T21:01:14.610Z,19.05
2023-06-30T21:03:41.191Z,19.01
2023-06-30T21:06:07.843Z,19.00
2023-06-30T21:08:34.392Z,18.98
2023-06-30T21:11:00.859Z,18.93
2023-06-30T21:13:28.180Z,18.90
2023-06-30T21:15:54.699Z,18.87
2023-06-30T21:18:21.145Z,18.84
2023-06-30T21:20:47.903Z,18.81
2023-06-30T21:23:14.648Z,18.85
2023-06-30T21:25:41.484Z,18.90
2023-06-30T21:28:07.940Z,18.88
2023-06-30T21:30:34.376Z,18.92
2023-06-30T21:33:02.393Z,18.92
2023-06-30T21:35:29.656Z,18.93
2023-06-30T21:37:56.195Z,18.93
2023-06-30T21:40:23.448Z,18.91
2023-06-30T21:42:51.536Z,18.89
2023-06-30T21:45:22.425Z,18.86
2023-06-30T21:47:51.996Z,18.83
2023-06-30T21:50:20.160Z,18.80
2023-06-30T21:52:48.395Z,18.80
2023-06-30T21:55:16.247Z,18.81
2023-06-30T21:57:44.182Z,18.79
2023-06-30T22:00:12.426Z,18.80
2023-06-30T22:02:44.092Z,18.80
2023-06-30T22:05:12.757Z,18.79
2023-06-30T22:07:40.380Z,18.78
2023-06-30T22:10:08.908Z,18.77
2023-06-30T22:12:40.471Z,18.80
2023-06-30T22:15:09.293Z,18.79
2023-06-30T22:17:38.704Z,18.78
2023-06-30T22:20:11.185Z,18.78
2023-06-30T22:22:39.245Z,18.78
2023-06-30T22:25:10.087Z,18.77
2023-06-30T22:27:36.718Z,18.76
2023-06-30T22:30:03.545Z,18.75
2023-06-30T22:32:30.157Z,18.75
2023-06-30T22:34:56.656Z,18.70
2023-06-30T22:37:23.113Z,18.72
2023-06-30T22:39:49.529Z,18.71
2023-06-30T22:42:16.042Z,18.63
2023-06-30T22:44:42.631Z,18.65
2023-06-30T22:47:10.359Z,18.56
2023-06-30T22:49:37.172Z,18.60
2023-06-30T22:52:03.913Z,18.62
2023-06-30T22:54:30.358Z,18.63
2023-06-30T22:56:57.620Z,18.64
2023-06-30T22:59:24.091Z,18.64
2023-06-30T23:01:50.731Z,18.64
2023-06-30T23:04:17.509Z,18.65
2023-06-30T23:06:44.163Z,18.64
2023-06-30T23:09:10.801Z,18.67
2023-06-30T23:11:37.310Z,18.64
2023-06-30T23:14:05.080Z,18.69
2023-06-30T23:16:38.373Z,18.69
2023-06-30T23:19:07.145Z,18.71
2023-06-30T23:21:34.818Z,18.67
2023-06-30T23:24:01.413Z,18.68
2023-06-30T23:26:27.910Z,18.69
2023-06-30T23:28:55.237Z,18.70
2023-06-30T23:31:21.886Z,18.71
2023-06-30T23:33:53.055Z,18.70
2023-06-30T23:36:20.714Z,18.70
2023-06-30T23:38:47.314Z,18.65
2023-06-30T23:41:14.930Z,18.67
2023-06-30T23:43:41.534Z,18.62
2023-06-30T23:46:17.370Z,18.53
2023-06-30T23:48:44.047Z,18.58
2023-06-30T23:51:10.610Z,18.69
2023-06-30T23:53:37.173Z,18.69
2023-06-30T23:56:04.665Z,18.71
2023-06-30T23:58:32.548Z,18.70
